createdAt,value
2022-10-08T00:02:23.584Z,19.50
2022-10-08T00:07:30.739Z,19.10
2022-10-08T00:17:44.075Z,18.50
2022-10-08T00:22:51.397Z,16.80
2022-10-08T00:27:59.872Z,18.20
2022-10-08T00:33:07.675Z,19.10
2022-10-08T00:38:15.441Z,18.80
2022-10-08T00:43:44.406Z,17.80
2022-10-08T00:48:54.754Z,17.80
2022-10-08T00:54:04.005Z,17.40
2022-10-08T00:59:14.614Z,17.90
2022-10-08T01:04:21.655Z,17.20
2022-10-08T01:09:35.692Z,17.70
2022-10-08T01:14:49.436Z,16.00
2022-10-08T01:20:27.969Z,16.90
2022-10-08T01:25:48.381Z,16.30
2022-10-08T01:31:01.445Z,16.70
2022-10-08T01:36:11.408Z,16.90
2022-10-08T01:41:21.973Z,18.10
2022-10-08T01:46:32.754Z,17.80
2022-10-08T01:51:47.397Z,16.80
2022-10-08T01:56:56.450Z,16.70
2022-10-08T02:02:09.656Z,15.70
2022-10-08T02:07:19.655Z,17.30
2022-10-08T02:12:27.065Z,18.20
2022-10-08T02:17:41.948Z,16.70
2022-10-08T02:22:59.039Z,17.50
2022-10-08T02:33:23.770Z,16.80
2022-10-08T02:38:37.793Z,16.30
2022-10-08T02:43:49.227Z,16.80
2022-10-08T02:49:02.035Z,16.80
2022-10-08T02:54:10.708Z,19.40
2022-10-08T02:59:20.840Z,18.10
2022-10-08T03:04:32.854Z,16.30
2022-10-08T03:09:44.574Z,13.90
2022-10-08T03:14:53.352Z,17.70
2022-10-08T03:20:03.281Z,16.00
2022-10-08T03:25:11.325Z,18.00
2022-10-08T03:30:19.320Z,17.20
2022-10-08T03:35:27.133Z,17.60
2022-10-08T03:40:34.125Z,18.50
2022-10-08T03:45:50.290Z,17.50
2022-10-08T03:50:59.585Z,20.80
2022-10-08T03:56:08.846Z,19.40
2022-10-08T04:01:18.834Z,19.30
2022-10-08T04:06:26.618Z,18.00
2022-10-08T04:16:39.510Z,17.90
2022-10-08T04:26:52.488Z,17.50
2022-10-08T04:31:59.897Z,16.50
2022-10-08T04:37:07.189Z,17.10
2022-10-08T04:42:14.732Z,16.60
2022-10-08T04:47:22.010Z,16.30
2022-10-08T04:52:29.083Z,16.40
2022-10-08T04:57:36.014Z,18.30
2022-10-08T05:02:43.306Z,16.80
2022-10-08T05:07:50.655Z,17.90
2022-10-08T05:12:57.589Z,19.00
2022-10-08T05:18:04.700Z,18.10
2022-10-08T05:23:12.204Z,20.00
2022-10-08T05:28:19.276Z,18.50
2022-10-08T05:33:26.438Z,18.90
2022-10-08T05:38:35.345Z,19.60
2022-10-08T05:43:44.076Z,17.30
2022-10-08T05:48:55.161Z,17.60
2022-10-08T05:54:03.144Z,18.10
2022-10-08T05:59:17.739Z,19.90
2022-10-08T06:04:25.265Z,17.10
2022-10-08T06:09:33.032Z,18.60
2022-10-08T06:14:40.194Z,18.20
2022-10-08T06:19:50.771Z,21.40
2022-10-08T06:24:57.903Z,19.10
2022-10-08T06:30:05.704Z,18.60
2022-10-08T06:35:13.187Z,16.80
2022-10-08T06:40:21.428Z,16.70
2022-10-08T06:45:28.964Z,17.50
2022-10-08T06:50:39.706Z,19.50
2022-10-08T06:55:47.677Z,19.50
2022-10-08T07:01:04.109Z,19.80
2022-10-08T07:06:14.094Z,20.20
2022-10-08T07:11:22.399Z,19.90
2022-10-08T07:16:31.840Z,19.20
2022-10-08T07:21:39.097Z,20.50
2022-10-08T07:26:47.029Z,18.60
2022-10-08T07:31:54.748Z,18.90
2022-10-08T07:37:02.090Z,18.20
2022-10-08T07:42:10.179Z,15.10
2022-10-08T07:47:17.693Z,17.00
2022-10-08T07:52:24.891Z,16.20
2022-10-08T07:57:32.027Z,15.30
2022-10-08T08:02:39.383Z,15.50
2022-10-08T08:07:52.405Z,14.80
2022-10-08T08:13:00.439Z,15.20
2022-10-08T08:18:10.377Z,13.00
2022-10-08T08:23:18.957Z,13.70
2022-10-08T08:28:27.789Z,11.30
2022-10-08T08:33:35.473Z,11.80
2022-10-08T08:38:43.136Z,11.00
2022-10-08T08:43:58.725Z,11.30
2022-10-08T08:49:13.381Z,11.90
2022-10-08T08:54:23.589Z,11.30
2022-10-08T08:59:35.597Z,7.40
2022-10-08T09:04:50.121Z,7.60
2022-10-08T09:10:01.951Z,6.80
2022-10-08T09:15:22.684Z,7.90
2022-10-08T09:20:31.059Z,7.20
2022-10-08T09:25:49.180Z,6.00
2022-10-08T09:31:13.044Z,6.40
2022-10-08T09:36:32.570Z,6.00
2022-10-08T09:41:40.732Z,5.80
2022-10-08T09:46:49.532Z,6.10
2022-10-08T09:51:58.928Z,5.90
2022-10-08T09:57:08.033Z,5.20
2022-10-08T10:02:31.216Z,5.30
2022-10-08T10:07:45.946Z,5.50
2022-10-08T10:12:56.619Z,5.80
2022-10-08T10:18:13.717Z,5.80
2022-10-08T10:23:26.631Z,5.50
2022-10-08T10:28:42.098Z,5.00
2022-10-08T10:33:56.438Z,6.30
2022-10-08T10:39:10.367Z,5.00
2022-10-08T10:44:23.681Z,4.90
2022-10-08T10:49:38.614Z,4.10
2022-10-08T10:55:18.602Z,4.10
2022-10-08T11:00:29.066Z,4.80
2022-10-08T11:05:39.779Z,5.00
2022-10-08T11:11:02.531Z,4.70
2022-10-08T11:16:23.729Z,4.70
2022-10-08T11:21:49.839Z,6.70
2022-10-08T11:27:07.067Z,5.10
2022-10-08T11:32:16.591Z,6.20
2022-10-08T11:37:31.589Z,5.60
2022-10-08T11:42:48.887Z,6.00
2022-10-08T11:47:58.129Z,5.50
2022-10-08T11:53:20.364Z,6.10
2022-10-08T11:58:32.413Z,6.60
2022-10-08T12:03:46.457Z,5.70
2022-10-08T12:09:04.480Z,6.70
2022-10-08T12:14:46.565Z,6.30
2022-10-08T12:20:22.190Z,6.20
2022-10-08T12:25:39.223Z,7.20
2022-10-08T12:36:05.380Z,5.90
2022-10-08T12:41:22.376Z,6.30
2022-10-08T12:51:47.883Z,7.90
2022-10-08T12:56:55.697Z,7.30
2022-10-08T13:02:04.683Z,6.60
2022-10-08T13:07:28.725Z,6.90
2022-10-08T13:12:35.992Z,7.30
2022-10-08T13:17:43.467Z,8.40
2022-10-08T13:22:51.265Z,8.20
2022-10-08T13:28:15.934Z,9.40
2022-10-08T13:33:25.104Z,9.10
2022-10-08T13:38:37.479Z,9.20
2022-10-08T13:43:45.205Z,9.40
2022-10-08T13:48:52.818Z,8.30
2022-10-08T13:54:00.394Z,8.60
2022-10-08T13:59:08.025Z,8.60
2022-10-08T14:04:15.701Z,9.10
2022-10-08T14:09:25.816Z,9.90
2022-10-08T14:14:33.531Z,8.90
2022-10-08T14:19:40.969Z,9.90
2022-10-08T14:24:49.712Z,9.20
2022-10-08T14:29:57.494Z,10.40
2022-10-08T14:35:05.086Z,10.30
2022-10-08T14:40:19.177Z,10.70
2022-10-08T14:45:26.530Z,10.80
2022-10-08T14:50:34.428Z,10.60
2022-10-08T14:56:07.502Z,11.20
2022-10-08T15:01:09.391Z,12.00
2022-10-08T15:06:16.731Z,11.80
2022-10-08T15:11:24.520Z,12.80
2022-10-08T15:16:32.034Z,9.00
2022-10-08T15:21:39.967Z,12.10
2022-10-08T15:26:47.767Z,11.80
2022-10-08T15:31:55.133Z,11.60
2022-10-08T15:37:03.890Z,11.60
2022-10-08T15:42:15.236Z,12.40
2022-10-08T15:47:22.511Z,13.00
2022-10-08T15:52:29.912Z,12.90
2022-10-08T15:57:37.731Z,12.20
2022-10-08T16:02:45.384Z,11.80
2022-10-08T16:07:52.969Z,11.40
2022-10-08T16:13:00.393Z,9.90
2022-10-08T16:18:07.685Z,11.80
2022-10-08T16:23:15.841Z,12.50
2022-10-08T16:28:23.222Z,11.20
2022-10-08T16:33:31.091Z,12.00
2022-10-08T16:38:40.910Z,11.40
2022-10-08T16:43:50.351Z,11.40
2022-10-08T16:49:00.094Z,13.00
2022-10-08T16:54:09.870Z,12.90
2022-10-08T16:59:22.215Z,13.00
2022-10-08T17:04:39.659Z,12.60
2022-10-08T17:09:50.020Z,11.90
2022-10-08T17:14:58.383Z,11.80
2022-10-08T17:20:06.889Z,11.50
2022-10-08T17:25:14.819Z,13.10
2022-10-08T17:30:24.189Z,12.20
2022-10-08T17:35:32.406Z,11.20
2022-10-08T17:40:40.434Z,12.50
2022-10-08T17:45:51.021Z,13.10
2022-10-08T17:50:56.886Z,13.10
2022-10-08T17:56:07.039Z,13.60
2022-10-08T18:01:17.195Z,13.10
2022-10-08T18:06:26.020Z,14.80
2022-10-08T18:11:35.781Z,14.30
2022-10-08T18:16:47.829Z,13.90
2022-10-08T18:21:55.822Z,15.00
2022-10-08T18:27:03.676Z,15.80
2022-10-08T18:32:11.914Z,16.10
2022-10-08T18:37:20.913Z,13.30
2022-10-08T18:42:28.808Z,17.60
2022-10-08T18:47:35.967Z,16.20
2022-10-08T18:52:47.589Z,19.60
2022-10-08T18:57:56.812Z,20.20
2022-10-08T19:03:05.362Z,17.50
2022-10-08T19:08:13.072Z,16.50
2022-10-08T19:13:21.259Z,16.30
2022-10-08T19:18:28.383Z,17.80
2022-10-08T19:23:35.817Z,18.70
2022-10-08T19:28:47.054Z,17.40
2022-10-08T19:33:55.955Z,17.80
2022-10-08T19:39:05.859Z,18.80
2022-10-08T19:44:13.497Z,21.00
2022-10-08T19:49:21.151Z,18.70
2022-10-08T19:54:28.763Z,14.50
2022-10-08T19:59:36.284Z,19.10
2022-10-08T20:04:45.063Z,19.50
2022-10-08T20:09:52.478Z,18.40
2022-10-08T20:14:59.631Z,16.80
2022-10-08T20:20:31.202Z,19.60
2022-10-08T20:25:36.276Z,15.70
2022-10-08T20:30:44.619Z,18.70
2022-10-08T20:35:52.835Z,18.50
2022-10-08T20:41:00.838Z,19.40
2022-10-08T20:46:10.755Z,19.10
2022-10-08T20:51:20.169Z,19.40
2022-10-08T20:56:28.621Z,22.50
2022-10-08T21:01:38.257Z,17.60
2022-10-08T21:06:47.028Z,19.70
2022-10-08T21:11:56.448Z,22.30
2022-10-08T21:17:03.864Z,20.90
2022-10-08T21:22:10.967Z,24.40
2022-10-08T21:27:18.274Z,20.10
2022-10-08T21:32:25.488Z,20.30
2022-10-08T21:37:32.776Z,22.70
2022-10-08T21:42:40.284Z,20.00
2022-10-08T21:47:48.103Z,21.60
2022-10-08T21:52:56.164Z,21.00
2022-10-08T21:58:06.097Z,22.00
2022-10-08T22:03:13.503Z,21.70
2022-10-08T22:08:21.102Z,20.70
2022-10-08T22:13:28.404Z,22.30
2022-10-08T22:18:36.348Z,20.80
2022-10-08T22:23:44.108Z,21.60
2022-10-08T22:28:51.856Z,20.00
2022-10-08T22:33:59.524Z,21.80
2022-10-08T22:39:07.105Z,22.80
2022-10-08T22:44:14.110Z,20.20
2022-10-08T22:49:21.064Z,23.00
2022-10-08T22:54:28.037Z,18.20
2022-10-08T22:59:35.628Z,19.30
2022-10-08T23:04:43.840Z,20.70
2022-10-08T23:09:50.791Z,18.50
2022-10-08T23:14:57.981Z,14.60
2022-10-08T23:20:05.613Z,16.50
2022-10-08T23:25:13.991Z,15.70
2022-10-08T23:30:42.222Z,16.00
2022-10-08T23:40:59.362Z,14.40
2022-10-08T23:46:08.318Z,12.20
2022-10-08T23:51:17.104Z,10.60
2022-10-08T23:56:25.516Z,11.70
